SAS1553 ESSA-EHAM
Flight info
| Callsign | SAS1553 |
|---|---|
| Flight time | 1h 44m |
| Altitude | 34000 |
| Route | PETEV N872 ELPAX DCT KULUD Z703 EKDIV DCT AMRAK DCT WANZA N872 KUBAT T200 BLUFA |
| Aircraft | A320/M-SDE3FGHIRWY/LB1 |
Departure
| Time | 2026-05-07 17:25 |
|---|---|
| Airport | Stockholm-Arlanda Airport (ESSA) |
Arrival
| Time | 2026-05-07 19:10 |
|---|---|
| Airport | Amsterdam Airport Schiphol (EHAM) |
| Time | Latitude | Longitude | Altitude | Speed | Heading |
|---|---|---|---|---|---|
| 2026-05-07 16:57 | 59.65366 | 17.92952 | 111 ft | 0 kts | 139° |
| 2026-05-07 17:14 | 59.65369 | 17.92948 | 112 ft | 3 kts | 139° |
| 2026-05-07 17:14 | 59.65384 | 17.92919 | 111 ft | 4 kts | 124° |
| 2026-05-07 17:14 | 59.65393 | 17.92873 | 112 ft | 4 kts | 85° |
| 2026-05-07 17:15 | 59.65390 | 17.92838 | 111 ft | 1 kts | 70° |
| 2026-05-07 17:15 | 59.65389 | 17.92833 | 111 ft | 1 kts | 70° |
| 2026-05-07 17:18 | 59.65389 | 17.92834 | 111 ft | 0 kts | 70° |
| 2026-05-07 17:18 | 59.65402 | 17.92907 | 109 ft | 8 kts | 69° |
| 2026-05-07 17:18 | 59.65409 | 17.92931 | 111 ft | 3 kts | 56° |
| 2026-05-07 17:19 | 59.65447 | 17.92943 | 112 ft | 9 kts | 334° |
| 2026-05-07 17:19 | 59.65456 | 17.92812 | 112 ft | 13 kts | 249° |
| 2026-05-07 17:19 | 59.65435 | 17.92643 | 110 ft | 11 kts | 290° |
| 2026-05-07 17:19 | 59.65511 | 17.92546 | 105 ft | 16 kts | 336° |
| 2026-05-07 17:20 | 59.65630 | 17.92478 | 103 ft | 19 kts | 346° |
| 2026-05-07 17:20 | 59.65726 | 17.92434 | 104 ft | 13 kts | 347° |
| 2026-05-07 17:20 | 59.65820 | 17.92441 | 106 ft | 14 kts | 10° |
| 2026-05-07 17:20 | 59.65919 | 17.92477 | 108 ft | 15 kts | 10° |
| 2026-05-07 17:21 | 59.66018 | 17.92513 | 110 ft | 16 kts | 11° |
| 2026-05-07 17:21 | 59.66129 | 17.92553 | 112 ft | 17 kts | 10° |
| 2026-05-07 17:21 | 59.66242 | 17.92596 | 115 ft | 17 kts | 11° |
| 2026-05-07 17:21 | 59.66352 | 17.92634 | 118 ft | 16 kts | 10° |
| 2026-05-07 17:22 | 59.66459 | 17.92653 | 121 ft | 15 kts | 352° |
| 2026-05-07 17:22 | 59.66534 | 17.92606 | 122 ft | 8 kts | 341° |
| 2026-05-07 17:22 | 59.66547 | 17.92598 | 123 ft | 3 kts | 340° |
| 2026-05-07 17:22 | 59.66606 | 17.92537 | 123 ft | 11 kts | 314° |
| 2026-05-07 17:23 | 59.66598 | 17.92380 | 123 ft | 14 kts | 226° |
| 2026-05-07 17:23 | 59.66560 | 17.92348 | 123 ft | 0 kts | 191° |
| 2026-05-07 17:24 | 59.66427 | 17.92300 | 121 ft | 52 kts | 189° |
| 2026-05-07 17:25 | 59.65852 | 17.92099 | 114 ft | 113 kts | 189° |
| 2026-05-07 17:25 | 59.64913 | 17.91752 | 109 ft | 159 kts | 188° |
| 2026-05-07 17:25 | 59.63784 | 17.91361 | 478 ft | 168 kts | 186° |
| 2026-05-07 17:25 | 59.62616 | 17.90971 | 1105 ft | 170 kts | 189° |
| 2026-05-07 17:26 | 59.61459 | 17.90322 | 1604 ft | 184 kts | 213° |
| 2026-05-07 17:26 | 59.60617 | 17.88247 | 1900 ft | 208 kts | 238° |
| 2026-05-07 17:26 | 59.59865 | 17.85681 | 2417 ft | 222 kts | 239° |
| 2026-05-07 17:26 | 59.59071 | 17.83014 | 3131 ft | 227 kts | 239° |
| 2026-05-07 17:27 | 59.58275 | 17.80277 | 3791 ft | 238 kts | 242° |
| 2026-05-07 17:27 | 59.57478 | 17.77255 | 4265 ft | 257 kts | 244° |
| 2026-05-07 17:27 | 59.56629 | 17.74087 | 4845 ft | 265 kts | 237° |
| 2026-05-07 17:27 | 59.55445 | 17.71324 | 4987 ft | 264 kts | 228° |
| 2026-05-07 17:28 | 59.54180 | 17.68672 | 5028 ft | 269 kts | 228° |
| 2026-05-07 17:28 | 59.52870 | 17.65990 | 5807 ft | 272 kts | 228° |
| 2026-05-07 17:28 | 59.51550 | 17.63308 | 6734 ft | 273 kts | 228° |
| 2026-05-07 17:28 | 59.50225 | 17.60624 | 7595 ft | 274 kts | 228° |
| 2026-05-07 17:29 | 59.48892 | 17.57921 | 8448 ft | 276 kts | 229° |
| 2026-05-07 17:29 | 59.47553 | 17.55204 | 9309 ft | 277 kts | 229° |
| 2026-05-07 17:29 | 59.46209 | 17.52472 | 10140 ft | 279 kts | 230° |
| 2026-05-07 17:29 | 59.44830 | 17.49663 | 10566 ft | 295 kts | 230° |
| 2026-05-07 17:30 | 59.43354 | 17.46649 | 10790 ft | 315 kts | 229° |
| 2026-05-07 17:30 | 59.41816 | 17.43521 | 11363 ft | 322 kts | 229° |
| 2026-05-07 17:30 | 59.40267 | 17.40381 | 12038 ft | 325 kts | 229° |
| 2026-05-07 17:30 | 59.38667 | 17.37149 | 12746 ft | 328 kts | 229° |
| 2026-05-07 17:31 | 59.37090 | 17.33974 | 13443 ft | 330 kts | 230° |
| 2026-05-07 17:31 | 59.35483 | 17.30741 | 14112 ft | 333 kts | 230° |
| 2026-05-07 17:31 | 59.33854 | 17.27462 | 14734 ft | 335 kts | 230° |
| 2026-05-07 17:31 | 59.32220 | 17.24187 | 15363 ft | 337 kts | 230° |
| 2026-05-07 17:32 | 59.30578 | 17.20900 | 15947 ft | 339 kts | 229° |
| 2026-05-07 17:32 | 59.28923 | 17.17587 | 16543 ft | 342 kts | 229° |
| 2026-05-07 17:32 | 59.27254 | 17.14248 | 17153 ft | 344 kts | 230° |
| 2026-05-07 17:32 | 59.25577 | 17.10894 | 17787 ft | 346 kts | 230° |
| 2026-05-07 17:33 | 59.23890 | 17.07521 | 18399 ft | 348 kts | 230° |
| 2026-05-07 17:33 | 59.22188 | 17.04128 | 18945 ft | 350 kts | 230° |
| 2026-05-07 17:33 | 59.20446 | 17.00768 | 19489 ft | 355 kts | 225° |
| 2026-05-07 17:33 | 59.18540 | 16.97655 | 20039 ft | 358 kts | 224° |
| 2026-05-07 17:34 | 59.16644 | 16.94577 | 20594 ft | 360 kts | 224° |
| 2026-05-07 17:34 | 59.14713 | 16.91436 | 21131 ft | 363 kts | 225° |
| 2026-05-07 17:34 | 59.12766 | 16.88267 | 21660 ft | 365 kts | 225° |
| 2026-05-07 17:34 | 59.10806 | 16.85080 | 22181 ft | 368 kts | 225° |
| 2026-05-07 17:35 | 59.08836 | 16.81887 | 22694 ft | 371 kts | 225° |
| 2026-05-07 17:35 | 59.06838 | 16.78655 | 23149 ft | 374 kts | 224° |
| 2026-05-07 17:35 | 59.04826 | 16.75413 | 23622 ft | 378 kts | 224° |
| 2026-05-07 17:35 | 59.02792 | 16.72145 | 24033 ft | 380 kts | 224° |
| 2026-05-07 17:36 | 59.00742 | 16.68858 | 24439 ft | 383 kts | 224° |
| 2026-05-07 17:36 | 58.98686 | 16.65560 | 24840 ft | 385 kts | 224° |
| 2026-05-07 17:36 | 58.96641 | 16.62280 | 25231 ft | 387 kts | 224° |
| 2026-05-07 17:36 | 58.94559 | 16.58943 | 25614 ft | 390 kts | 224° |
| 2026-05-07 17:37 | 58.92464 | 16.55593 | 26005 ft | 392 kts | 224° |
| 2026-05-07 17:37 | 58.90354 | 16.52223 | 26379 ft | 394 kts | 224° |
| 2026-05-07 17:37 | 58.88237 | 16.48849 | 26748 ft | 396 kts | 224° |
| 2026-05-07 17:37 | 58.86100 | 16.45453 | 27105 ft | 398 kts | 224° |
| 2026-05-07 17:38 | 58.83949 | 16.42040 | 27433 ft | 401 kts | 224° |
| 2026-05-07 17:38 | 58.81785 | 16.38612 | 27744 ft | 404 kts | 224° |
| 2026-05-07 17:38 | 58.79604 | 16.35160 | 28058 ft | 407 kts | 224° |
| 2026-05-07 17:38 | 58.77398 | 16.31671 | 28402 ft | 409 kts | 224° |
| 2026-05-07 17:39 | 58.75214 | 16.28226 | 28743 ft | 411 kts | 224° |
| 2026-05-07 17:39 | 58.72988 | 16.24722 | 29078 ft | 414 kts | 224° |
| 2026-05-07 17:39 | 58.70749 | 16.21204 | 29421 ft | 416 kts | 224° |
| 2026-05-07 17:39 | 58.68500 | 16.17677 | 29754 ft | 418 kts | 224° |
| 2026-05-07 17:40 | 58.66238 | 16.14133 | 30089 ft | 420 kts | 224° |
| 2026-05-07 17:40 | 58.63960 | 16.10574 | 30390 ft | 423 kts | 224° |
| 2026-05-07 17:40 | 58.61678 | 16.07022 | 30742 ft | 422 kts | 224° |
| 2026-05-07 17:40 | 58.59400 | 16.03483 | 31103 ft | 422 kts | 224° |
| 2026-05-07 17:41 | 58.57118 | 15.99938 | 31442 ft | 423 kts | 224° |
| 2026-05-07 17:41 | 58.54830 | 15.96386 | 31795 ft | 423 kts | 224° |
| 2026-05-07 17:41 | 58.52539 | 15.92836 | 32170 ft | 423 kts | 224° |
| 2026-05-07 17:41 | 58.50258 | 15.89304 | 32550 ft | 423 kts | 224° |
| 2026-05-07 17:42 | 58.47994 | 15.85804 | 32931 ft | 422 kts | 224° |
| 2026-05-07 17:42 | 58.45709 | 15.82279 | 33319 ft | 422 kts | 224° |
| 2026-05-07 17:42 | 58.43423 | 15.78761 | 33704 ft | 422 kts | 224° |
| 2026-05-07 17:42 | 58.41119 | 15.75227 | 34045 ft | 422 kts | 224° |
| 2026-05-07 17:43 | 58.36545 | 15.68224 | 34107 ft | 422 kts | 224° |
| 2026-05-07 17:43 | 58.31962 | 15.61211 | 34116 ft | 424 kts | 223° |
| 2026-05-07 17:44 | 58.27347 | 15.54176 | 34114 ft | 425 kts | 223° |
| 2026-05-07 17:44 | 58.22726 | 15.47174 | 34109 ft | 425 kts | 223° |
| 2026-05-07 17:45 | 58.18095 | 15.40177 | 34109 ft | 426 kts | 223° |
| 2026-05-07 17:45 | 58.13482 | 15.33246 | 34113 ft | 426 kts | 223° |
| 2026-05-07 17:46 | 58.08838 | 15.26267 | 34097 ft | 426 kts | 224° |
| 2026-05-07 17:46 | 58.04395 | 15.18894 | 34099 ft | 424 kts | 227° |
| 2026-05-07 17:47 | 58.00090 | 15.11278 | 34099 ft | 424 kts | 227° |
| 2026-05-07 17:47 | 57.95760 | 15.03731 | 34102 ft | 425 kts | 226° |
| 2026-05-07 17:48 | 57.91363 | 14.96264 | 34111 ft | 426 kts | 226° |
| 2026-05-07 17:48 | 57.86965 | 14.88874 | 34116 ft | 426 kts | 226° |
| 2026-05-07 17:49 | 57.82531 | 14.81439 | 34112 ft | 426 kts | 226° |
| 2026-05-07 17:49 | 57.78115 | 14.74017 | 34115 ft | 426 kts | 226° |
| 2026-05-07 17:50 | 57.73695 | 14.66617 | 34110 ft | 426 kts | 225° |
| 2026-05-07 17:50 | 57.69263 | 14.59232 | 34107 ft | 426 kts | 225° |
| 2026-05-07 17:51 | 57.64830 | 14.51875 | 34102 ft | 427 kts | 225° |
| 2026-05-07 17:51 | 57.60414 | 14.44563 | 34091 ft | 427 kts | 225° |
| 2026-05-07 17:52 | 57.55959 | 14.37203 | 34089 ft | 428 kts | 225° |
| 2026-05-07 17:52 | 57.52246 | 14.31098 | 34079 ft | 428 kts | 225° |
| 2026-05-07 17:53 | 57.47774 | 14.23773 | 34087 ft | 428 kts | 225° |
| 2026-05-07 17:53 | 57.43292 | 14.16466 | 34091 ft | 429 kts | 225° |
| 2026-05-07 17:54 | 57.38804 | 14.09178 | 34076 ft | 429 kts | 224° |
| 2026-05-07 17:54 | 57.34304 | 14.01881 | 34072 ft | 430 kts | 224° |
| 2026-05-07 17:55 | 57.29829 | 13.94627 | 34075 ft | 430 kts | 224° |
| 2026-05-07 17:55 | 57.25320 | 13.87354 | 34077 ft | 430 kts | 224° |
| 2026-05-07 17:56 | 57.20807 | 13.80090 | 34092 ft | 431 kts | 224° |
| 2026-05-07 17:56 | 57.16279 | 13.72834 | 34080 ft | 431 kts | 224° |
| 2026-05-07 17:57 | 57.11740 | 13.65597 | 34082 ft | 431 kts | 223° |
| 2026-05-07 17:57 | 57.07199 | 13.58388 | 34084 ft | 432 kts | 223° |
| 2026-05-07 17:58 | 57.02646 | 13.51180 | 34099 ft | 432 kts | 223° |
| 2026-05-07 17:58 | 56.98087 | 13.43986 | 34100 ft | 432 kts | 223° |
| 2026-05-07 17:59 | 56.93532 | 13.36799 | 34093 ft | 432 kts | 223° |
| 2026-05-07 17:59 | 56.88963 | 13.29624 | 34097 ft | 433 kts | 223° |
| 2026-05-07 18:00 | 56.84372 | 13.22458 | 34098 ft | 434 kts | 223° |
| 2026-05-07 18:00 | 56.79801 | 13.15337 | 34106 ft | 435 kts | 223° |
| 2026-05-07 18:01 | 56.75188 | 13.08176 | 34106 ft | 435 kts | 222° |
| 2026-05-07 18:01 | 56.70567 | 13.01024 | 34107 ft | 436 kts | 223° |
| 2026-05-07 18:02 | 56.63621 | 12.90305 | 34102 ft | 437 kts | 222° |
| 2026-05-07 18:03 | 56.58974 | 12.83172 | 34100 ft | 437 kts | 222° |
| 2026-05-07 18:03 | 56.54326 | 12.76057 | 34114 ft | 437 kts | 222° |
| 2026-05-07 18:04 | 56.49667 | 12.68958 | 34125 ft | 437 kts | 222° |
| 2026-05-07 18:04 | 56.45035 | 12.61924 | 34137 ft | 437 kts | 221° |
| 2026-05-07 18:05 | 56.40369 | 12.54851 | 34132 ft | 438 kts | 221° |
| 2026-05-07 18:05 | 56.35689 | 12.47782 | 34130 ft | 439 kts | 221° |
| 2026-05-07 18:06 | 56.31000 | 12.40737 | 34135 ft | 439 kts | 221° |
| 2026-05-07 18:06 | 56.26297 | 12.33690 | 34141 ft | 439 kts | 221° |
| 2026-05-07 18:07 | 56.21634 | 12.26576 | 34141 ft | 439 kts | 222° |
| 2026-05-07 18:07 | 56.17038 | 12.19418 | 34132 ft | 440 kts | 222° |
| 2026-05-07 18:08 | 56.12399 | 12.12231 | 34132 ft | 441 kts | 221° |
| 2026-05-07 18:08 | 56.07736 | 12.05090 | 34131 ft | 441 kts | 221° |
| 2026-05-07 18:09 | 56.03048 | 11.97974 | 34144 ft | 441 kts | 221° |
| 2026-05-07 18:09 | 55.98504 | 11.90603 | 34151 ft | 440 kts | 227° |
| 2026-05-07 18:10 | 55.94249 | 11.82744 | 34141 ft | 441 kts | 227° |
| 2026-05-07 18:10 | 55.89979 | 11.74886 | 34145 ft | 441 kts | 227° |
| 2026-05-07 18:11 | 55.85707 | 11.67043 | 34137 ft | 441 kts | 226° |
| 2026-05-07 18:11 | 55.81416 | 11.59221 | 34142 ft | 442 kts | 226° |
| 2026-05-07 18:12 | 55.77147 | 11.51467 | 34146 ft | 442 kts | 226° |
| 2026-05-07 18:12 | 55.72842 | 11.43667 | 34135 ft | 443 kts | 226° |
| 2026-05-07 18:13 | 55.68530 | 11.35856 | 34139 ft | 443 kts | 227° |
| 2026-05-07 18:13 | 55.64331 | 11.27847 | 34137 ft | 444 kts | 228° |
| 2026-05-07 18:14 | 55.60191 | 11.19736 | 34138 ft | 444 kts | 228° |
| 2026-05-07 18:14 | 55.56028 | 11.11674 | 34150 ft | 443 kts | 228° |
| 2026-05-07 18:15 | 55.51835 | 11.03669 | 34151 ft | 443 kts | 227° |
| 2026-05-07 18:15 | 55.47671 | 10.95773 | 34146 ft | 443 kts | 227° |
| 2026-05-07 18:16 | 55.43462 | 10.87820 | 34151 ft | 443 kts | 227° |
| 2026-05-07 18:16 | 55.39265 | 10.79895 | 34152 ft | 443 kts | 227° |
| 2026-05-07 18:17 | 55.35055 | 10.71951 | 34154 ft | 443 kts | 227° |
| 2026-05-07 18:17 | 55.30844 | 10.64039 | 34147 ft | 443 kts | 227° |
| 2026-05-07 18:18 | 55.26622 | 10.56141 | 34135 ft | 444 kts | 227° |
| 2026-05-07 18:18 | 55.22418 | 10.48319 | 34134 ft | 444 kts | 227° |
| 2026-05-07 18:19 | 55.18168 | 10.40422 | 34142 ft | 445 kts | 227° |
| 2026-05-07 18:19 | 55.13916 | 10.32541 | 34143 ft | 445 kts | 227° |
| 2026-05-07 18:20 | 55.09660 | 10.24688 | 34147 ft | 445 kts | 227° |
| 2026-05-07 18:20 | 55.05390 | 10.16832 | 34145 ft | 446 kts | 226° |
| 2026-05-07 18:21 | 55.01131 | 10.09012 | 34146 ft | 446 kts | 226° |
| 2026-05-07 18:21 | 54.96849 | 10.01181 | 34141 ft | 447 kts | 226° |
| 2026-05-07 18:22 | 54.92552 | 9.93367 | 34145 ft | 447 kts | 226° |
| 2026-05-07 18:22 | 54.88245 | 9.85559 | 34147 ft | 447 kts | 226° |
| 2026-05-07 18:23 | 54.83935 | 9.77770 | 34137 ft | 447 kts | 226° |
| 2026-05-07 18:23 | 54.79999 | 9.69421 | 34133 ft | 448 kts | 233° |
| 2026-05-07 18:24 | 54.76266 | 9.60765 | 34133 ft | 448 kts | 233° |
| 2026-05-07 18:24 | 54.72538 | 9.52184 | 34132 ft | 448 kts | 233° |
| 2026-05-07 18:25 | 54.68778 | 9.43575 | 34129 ft | 448 kts | 233° |
| 2026-05-07 18:25 | 54.65026 | 9.34986 | 34135 ft | 449 kts | 233° |
| 2026-05-07 18:26 | 54.61248 | 9.26367 | 34123 ft | 449 kts | 232° |
| 2026-05-07 18:26 | 54.57461 | 9.17754 | 34116 ft | 450 kts | 232° |
| 2026-05-07 18:27 | 54.53666 | 9.09169 | 34124 ft | 450 kts | 232° |
| 2026-05-07 18:27 | 54.49867 | 9.00595 | 34131 ft | 450 kts | 232° |
| 2026-05-07 18:28 | 54.46059 | 8.92040 | 34128 ft | 450 kts | 232° |
| 2026-05-07 18:28 | 54.42245 | 8.83510 | 34132 ft | 450 kts | 232° |
| 2026-05-07 18:29 | 54.38426 | 8.74998 | 34134 ft | 450 kts | 231° |
| 2026-05-07 18:29 | 54.34624 | 8.66535 | 34133 ft | 451 kts | 231° |
| 2026-05-07 18:30 | 54.30785 | 8.58036 | 34126 ft | 451 kts | 231° |
| 2026-05-07 18:30 | 54.26941 | 8.49546 | 34130 ft | 451 kts | 231° |
| 2026-05-07 18:31 | 54.23080 | 8.41096 | 34139 ft | 450 kts | 228° |
| 2026-05-07 18:31 | 54.18648 | 8.33574 | 34150 ft | 449 kts | 222° |
| 2026-05-07 18:32 | 54.14118 | 8.26239 | 34140 ft | 448 kts | 222° |
| 2026-05-07 18:32 | 54.09592 | 8.18926 | 34132 ft | 448 kts | 222° |
| 2026-05-07 18:33 | 54.05101 | 8.11683 | 34138 ft | 448 kts | 222° |
| 2026-05-07 18:33 | 54.00566 | 8.04395 | 34137 ft | 448 kts | 222° |
| 2026-05-07 18:34 | 53.96027 | 7.97111 | 34148 ft | 447 kts | 222° |
| 2026-05-07 18:34 | 53.91490 | 7.89846 | 34148 ft | 446 kts | 222° |
| 2026-05-07 18:35 | 53.87002 | 7.82700 | 34142 ft | 445 kts | 221° |
| 2026-05-07 18:35 | 53.82487 | 7.75534 | 34134 ft | 445 kts | 221° |
| 2026-05-07 18:36 | 53.77971 | 7.68374 | 34133 ft | 444 kts | 221° |
| 2026-05-07 18:36 | 53.73453 | 7.61241 | 34142 ft | 444 kts | 222° |
| 2026-05-07 18:37 | 53.68949 | 7.54159 | 34138 ft | 442 kts | 221° |
| 2026-05-07 18:37 | 53.64452 | 7.47111 | 34144 ft | 440 kts | 221° |
| 2026-05-07 18:38 | 53.59953 | 7.40089 | 34141 ft | 439 kts | 221° |
| 2026-05-07 18:38 | 53.57722 | 7.36608 | 33904 ft | 434 kts | 221° |
| 2026-05-07 18:38 | 53.56267 | 7.34338 | 33718 ft | 428 kts | 221° |
| 2026-05-07 18:38 | 53.54098 | 7.30954 | 33441 ft | 423 kts | 221° |
| 2026-05-07 18:39 | 53.51949 | 7.27614 | 33170 ft | 420 kts | 222° |
| 2026-05-07 18:39 | 53.49815 | 7.24309 | 32828 ft | 415 kts | 222° |
| 2026-05-07 18:39 | 53.47687 | 7.21015 | 32114 ft | 417 kts | 222° |
| 2026-05-07 18:39 | 53.45572 | 7.17744 | 31327 ft | 411 kts | 222° |
| 2026-05-07 18:40 | 53.43486 | 7.14525 | 30570 ft | 404 kts | 222° |
| 2026-05-07 18:40 | 53.41434 | 7.11360 | 29774 ft | 398 kts | 222° |
| 2026-05-07 18:40 | 53.39409 | 7.08236 | 28913 ft | 393 kts | 222° |
| 2026-05-07 18:40 | 53.37411 | 7.05164 | 28084 ft | 388 kts | 222° |
| 2026-05-07 18:41 | 53.35431 | 7.02125 | 27281 ft | 384 kts | 222° |
| 2026-05-07 18:41 | 53.33467 | 6.99128 | 26503 ft | 380 kts | 221° |
| 2026-05-07 18:41 | 53.31489 | 6.96299 | 26191 ft | 366 kts | 219° |
| 2026-05-07 18:41 | 53.29516 | 6.93641 | 26093 ft | 364 kts | 218° |
| 2026-05-07 18:42 | 53.27517 | 6.91024 | 26111 ft | 365 kts | 218° |
| 2026-05-07 18:42 | 53.25528 | 6.88386 | 26110 ft | 365 kts | 223° |
| 2026-05-07 18:42 | 53.23770 | 6.85317 | 25940 ft | 367 kts | 227° |
| 2026-05-07 18:42 | 53.22048 | 6.82202 | 25303 ft | 362 kts | 227° |
| 2026-05-07 18:43 | 53.20352 | 6.79130 | 24691 ft | 358 kts | 227° |
| 2026-05-07 18:43 | 53.18672 | 6.76090 | 24096 ft | 355 kts | 227° |
| 2026-05-07 18:43 | 53.17001 | 6.73073 | 23469 ft | 352 kts | 227° |
| 2026-05-07 18:43 | 53.15349 | 6.70095 | 22776 ft | 348 kts | 227° |
| 2026-05-07 18:44 | 53.13711 | 6.67146 | 22103 ft | 344 kts | 227° |
| 2026-05-07 18:44 | 53.12095 | 6.64246 | 21797 ft | 341 kts | 227° |
| 2026-05-07 18:44 | 53.10481 | 6.61351 | 21536 ft | 341 kts | 227° |
| 2026-05-07 18:44 | 53.08890 | 6.58490 | 21276 ft | 341 kts | 227° |
| 2026-05-07 18:45 | 53.07262 | 6.55564 | 21016 ft | 339 kts | 227° |
| 2026-05-07 18:45 | 53.05686 | 6.52740 | 20755 ft | 336 kts | 227° |
| 2026-05-07 18:45 | 53.04097 | 6.49899 | 20511 ft | 336 kts | 227° |
| 2026-05-07 18:45 | 53.02514 | 6.47070 | 20258 ft | 333 kts | 227° |
| 2026-05-07 18:46 | 53.00940 | 6.44262 | 20004 ft | 331 kts | 227° |
| 2026-05-07 18:46 | 52.99375 | 6.41471 | 19756 ft | 329 kts | 227° |
| 2026-05-07 18:46 | 52.97818 | 6.38691 | 19509 ft | 328 kts | 227° |
| 2026-05-07 18:46 | 52.96258 | 6.35910 | 19264 ft | 328 kts | 227° |
| 2026-05-07 18:47 | 52.94705 | 6.33145 | 19024 ft | 327 kts | 227° |
| 2026-05-07 18:47 | 52.93159 | 6.30398 | 18778 ft | 325 kts | 227° |
| 2026-05-07 18:47 | 52.91616 | 6.27665 | 18543 ft | 324 kts | 227° |
| 2026-05-07 18:47 | 52.90074 | 6.24944 | 18299 ft | 324 kts | 227° |
| 2026-05-07 18:48 | 52.88537 | 6.22233 | 18009 ft | 322 kts | 227° |
| 2026-05-07 18:48 | 52.87005 | 6.19529 | 17737 ft | 320 kts | 227° |
| 2026-05-07 18:48 | 52.85488 | 6.16843 | 17467 ft | 319 kts | 227° |
| 2026-05-07 18:48 | 52.83978 | 6.14163 | 17200 ft | 318 kts | 227° |
| 2026-05-07 18:49 | 52.82470 | 6.11495 | 16939 ft | 317 kts | 227° |
| 2026-05-07 18:49 | 52.80965 | 6.08846 | 16677 ft | 315 kts | 227° |
| 2026-05-07 18:49 | 52.79465 | 6.06216 | 16417 ft | 313 kts | 227° |
| 2026-05-07 18:49 | 52.77975 | 6.03605 | 16156 ft | 312 kts | 227° |
| 2026-05-07 18:50 | 52.76488 | 6.00999 | 15902 ft | 311 kts | 227° |
| 2026-05-07 18:50 | 52.75005 | 5.98403 | 15649 ft | 309 kts | 227° |
| 2026-05-07 18:50 | 52.73534 | 5.95828 | 15397 ft | 308 kts | 227° |
| 2026-05-07 18:50 | 52.72070 | 5.93269 | 15147 ft | 306 kts | 227° |
| 2026-05-07 18:51 | 52.70611 | 5.90719 | 14894 ft | 305 kts | 227° |
| 2026-05-07 18:51 | 52.69167 | 5.88196 | 14655 ft | 300 kts | 227° |
| 2026-05-07 18:51 | 52.67737 | 5.85699 | 14319 ft | 298 kts | 227° |
| 2026-05-07 18:51 | 52.66310 | 5.83210 | 13961 ft | 298 kts | 227° |
| 2026-05-07 18:52 | 52.64890 | 5.80737 | 13581 ft | 297 kts | 227° |
| 2026-05-07 18:52 | 52.63476 | 5.78279 | 13223 ft | 295 kts | 227° |
| 2026-05-07 18:52 | 52.62066 | 5.75839 | 12866 ft | 293 kts | 227° |
| 2026-05-07 18:52 | 52.60664 | 5.73412 | 12511 ft | 292 kts | 227° |
| 2026-05-07 18:53 | 52.59271 | 5.70998 | 12159 ft | 290 kts | 227° |
| 2026-05-07 18:53 | 52.57904 | 5.68634 | 11817 ft | 288 kts | 227° |
| 2026-05-07 18:53 | 52.56524 | 5.66250 | 11464 ft | 287 kts | 227° |
| 2026-05-07 18:53 | 52.55148 | 5.63872 | 11116 ft | 286 kts | 227° |
| 2026-05-07 18:54 | 52.53777 | 5.61507 | 10761 ft | 285 kts | 227° |
| 2026-05-07 18:54 | 52.52414 | 5.59146 | 10434 ft | 284 kts | 230° |
| 2026-05-07 18:54 | 52.51325 | 5.56540 | 10367 ft | 271 kts | 239° |
| 2026-05-07 18:54 | 52.50359 | 5.53959 | 10305 ft | 260 kts | 239° |
| 2026-05-07 18:55 | 52.49406 | 5.51423 | 10250 ft | 262 kts | 239° |
| 2026-05-07 18:55 | 52.48446 | 5.48872 | 10193 ft | 264 kts | 239° |
| 2026-05-07 18:55 | 52.47459 | 5.46254 | 10038 ft | 278 kts | 238° |
| 2026-05-07 18:55 | 52.46434 | 5.43533 | 9775 ft | 281 kts | 238° |
| 2026-05-07 18:56 | 52.45412 | 5.40819 | 9504 ft | 279 kts | 238° |
| 2026-05-07 18:56 | 52.44393 | 5.38115 | 9236 ft | 279 kts | 238° |
| 2026-05-07 18:56 | 52.43376 | 5.35416 | 8939 ft | 278 kts | 238° |
| 2026-05-07 18:56 | 52.42363 | 5.32720 | 8598 ft | 277 kts | 238° |
| 2026-05-07 18:57 | 52.41363 | 5.30041 | 8259 ft | 275 kts | 238° |
| 2026-05-07 18:57 | 52.40355 | 5.27329 | 7573 ft | 283 kts | 238° |
| 2026-05-07 18:57 | 52.39332 | 5.24558 | 6820 ft | 285 kts | 238° |
| 2026-05-07 18:57 | 52.38309 | 5.21779 | 6048 ft | 285 kts | 238° |
| 2026-05-07 18:58 | 52.37284 | 5.18996 | 5271 ft | 285 kts | 238° |
| 2026-05-07 18:58 | 52.36257 | 5.16218 | 4495 ft | 286 kts | 238° |
| 2026-05-07 18:58 | 52.35250 | 5.13498 | 4162 ft | 271 kts | 238° |
| 2026-05-07 18:58 | 52.34289 | 5.10902 | 4074 ft | 266 kts | 238° |
| 2026-05-07 18:59 | 52.33329 | 5.08311 | 4089 ft | 266 kts | 238° |
| 2026-05-07 18:59 | 52.32365 | 5.05713 | 4062 ft | 268 kts | 238° |
| 2026-05-07 18:59 | 52.31400 | 5.03133 | 4019 ft | 265 kts | 238° |
| 2026-05-07 18:59 | 52.30436 | 5.00552 | 4013 ft | 266 kts | 238° |
| 2026-05-07 19:00 | 52.29472 | 4.97966 | 4008 ft | 266 kts | 238° |
| 2026-05-07 19:00 | 52.28514 | 4.95376 | 4010 ft | 267 kts | 238° |
| 2026-05-07 19:00 | 52.27564 | 4.92816 | 4014 ft | 266 kts | 237° |
| 2026-05-07 19:00 | 52.26614 | 4.90245 | 4010 ft | 264 kts | 238° |
| 2026-05-07 19:01 | 52.25667 | 4.87681 | 4012 ft | 263 kts | 238° |
| 2026-05-07 19:01 | 52.24723 | 4.85119 | 4010 ft | 263 kts | 238° |
| 2026-05-07 19:01 | 52.23777 | 4.82551 | 4010 ft | 263 kts | 238° |
| 2026-05-07 19:01 | 52.22843 | 4.80001 | 4006 ft | 258 kts | 238° |
| 2026-05-07 19:02 | 52.21951 | 4.77562 | 4004 ft | 243 kts | 238° |
| 2026-05-07 19:02 | 52.21108 | 4.75258 | 4009 ft | 234 kts | 238° |
| 2026-05-07 19:02 | 52.20271 | 4.72985 | 4010 ft | 232 kts | 238° |
| 2026-05-07 19:02 | 52.19436 | 4.70731 | 4011 ft | 232 kts | 237° |
| 2026-05-07 19:03 | 52.18605 | 4.68467 | 4020 ft | 233 kts | 238° |
| 2026-05-07 19:03 | 52.17779 | 4.66214 | 4019 ft | 234 kts | 237° |
| 2026-05-07 19:03 | 52.16951 | 4.63936 | 4018 ft | 234 kts | 237° |
| 2026-05-07 19:03 | 52.16145 | 4.61713 | 3931 ft | 220 kts | 238° |
| 2026-05-07 19:04 | 52.15395 | 4.59652 | 3838 ft | 201 kts | 238° |
| 2026-05-07 19:04 | 52.14776 | 4.57707 | 3543 ft | 191 kts | 254° |
| 2026-05-07 19:04 | 52.14867 | 4.55604 | 3078 ft | 189 kts | 296° |
| 2026-05-07 19:04 | 52.15731 | 4.54062 | 2586 ft | 186 kts | 327° |
| 2026-05-07 19:05 | 52.16828 | 4.52949 | 2094 ft | 185 kts | 332° |
| 2026-05-07 19:05 | 52.17985 | 4.52106 | 2009 ft | 182 kts | 356° |
| 2026-05-07 19:05 | 52.19231 | 4.52281 | 2024 ft | 180 kts | 17° |
| 2026-05-07 19:05 | 52.20384 | 4.53053 | 2021 ft | 179 kts | 33° |
| 2026-05-07 19:06 | 52.21343 | 4.54326 | 2018 ft | 177 kts | 49° |
| 2026-05-07 19:06 | 52.22704 | 4.57645 | 2020 ft | 175 kts | 59° |
| 2026-05-07 19:06 | 52.23356 | 4.59329 | 1980 ft | 177 kts | 59° |
| 2026-05-07 19:07 | 52.24008 | 4.61015 | 1813 ft | 175 kts | 59° |
| 2026-05-07 19:07 | 52.24656 | 4.62691 | 1592 ft | 175 kts | 59° |
| 2026-05-07 19:07 | 52.25300 | 4.64357 | 1363 ft | 172 kts | 59° |
| 2026-05-07 19:07 | 52.25919 | 4.65959 | 1126 ft | 161 kts | 58° |
| 2026-05-07 19:08 | 52.26511 | 4.67495 | 923 ft | 166 kts | 58° |
| 2026-05-07 19:08 | 52.27148 | 4.69146 | 692 ft | 171 kts | 58° |
| 2026-05-07 19:08 | 52.27733 | 4.70665 | 468 ft | 147 kts | 58° |
| 2026-05-07 19:08 | 52.28255 | 4.72013 | 308 ft | 136 kts | 57° |
| 2026-05-07 19:09 | 52.28751 | 4.73308 | 113 ft | 133 kts | 57° |
| 2026-05-07 19:09 | 52.29235 | 4.74573 | 3 ft | 122 kts | 58° |
| 2026-05-07 19:09 | 52.29605 | 4.75533 | -2 ft | 76 kts | 57° |
| 2026-05-07 19:09 | 52.29822 | 4.76096 | -4 ft | 50 kts | 58° |
| 2026-05-07 19:10 | 52.29971 | 4.76476 | -2 ft | 20 kts | 46° |
| 2026-05-07 19:10 | 52.30092 | 4.76594 | -2 ft | 21 kts | 26° |
| 2026-05-07 19:10 | 52.30165 | 4.76657 | -1 ft | 0 kts | 28° |
| 2026-05-07 19:11 | 52.30181 | 4.76671 | -1 ft | 4 kts | 28° |
| 2026-05-07 19:11 | 52.30220 | 4.76706 | -1 ft | 8 kts | 28° |
| 2026-05-07 19:11 | 52.30271 | 4.76739 | -1 ft | 7 kts | 13° |
| 2026-05-07 19:11 | 52.30323 | 4.76730 | -1 ft | 7 kts | 335° |
| 2026-05-07 19:12 | 52.30347 | 4.76651 | -1 ft | 9 kts | 288° |
| 2026-05-07 19:12 | 52.30385 | 4.76562 | -1 ft | 11 kts | 324° |
| 2026-05-07 19:12 | 52.30457 | 4.76487 | -1 ft | 9 kts | 329° |
| 2026-05-07 19:12 | 52.30497 | 4.76528 | -1 ft | 6 kts | 58° |
| 2026-05-07 19:13 | 52.30503 | 4.76543 | -1 ft | 3 kts | 58° |
| 2026-05-07 19:13 | 52.30506 | 4.76551 | -1 ft | 0 kts | 58° |